Time;durP1;ratioP1;P1;durP2;ratioP2;P2;SDS_P1;SDS_P2;PMS_P1;PMS_P2;Temp;Humidity;BMP_temperature;BMP_pressure;BME280_temperature;BME280_humidity;BME280_pressure;Samples;Min_cycle;Max_cycle;Signal;HPM_P1;HPM_P2
2024/01/10 00:00:58;;;;;;;6.43;3.80;;;;;;;-0.77;100.00;103363.53;2078746;28;20185;-69
2024/01/10 00:01:58;;;;;;;5.57;3.90;;;;;;;-0.69;100.00;103379.25;2076965;28;20217;-69
2024/01/10 00:02:59;;;;;;;9.37;4.47;;;;;;;-0.73;100.00;103379.00;2075611;28;20192;-69
2024/01/10 00:03:59;;;;;;;7.67;4.27;;;;;;;-0.73;100.00;103383.63;2075670;28;20195;-69
2024/01/10 00:05:00;;;;;;;8.57;4.93;;;;;;;-0.76;100.00;103378.78;2076547;28;20189;-69
2024/01/10 00:06:00;;;;;;;9.43;5.33;;;;;;;-0.83;100.00;103381.03;2076685;28;20191;-69
2024/01/10 00:07:01;;;;;;;12.70;5.60;;;;;;;-1.26;100.00;103312.06;2078183;28;20216;-69
2024/01/10 00:08:01;;;;;;;4.93;3.40;;;;;;;-1.07;100.00;103345.63;2077315;28;20220;-69
2024/01/10 00:09:02;;;;;;;8.53;4.87;;;;;;;-0.93;100.00;103374.91;2076505;28;20619;-69
2024/01/10 00:10:04;;;;;;;7.77;3.93;;;;;;;-1.39;100.00;103311.94;2077033;28;20573;-69
2024/01/10 00:11:04;;;;;;;8.23;4.80;;;;;;;-1.11;100.00;103360.13;2077005;28;20731;-69
2024/01/10 00:12:05;;;;;;;8.33;4.13;;;;;;;-0.98;100.00;103381.19;2077039;28;20189;-69
2024/01/10 00:13:06;;;;;;;6.77;4.27;;;;;;;-0.98;100.00;103377.66;2077868;28;20322;-69
2024/01/10 00:14:06;;;;;;;6.27;4.37;;;;;;;-0.95;100.00;103383.34;2075530;28;20278;-69
2024/01/10 00:15:07;;;;;;;8.10;4.27;;;;;;;-1.18;100.00;103348.75;2076545;28;20195;-69
2024/01/10 00:16:08;;;;;;;9.00;4.77;;;;;;;-1.00;100.00;103383.41;2076908;28;20206;-69
2024/01/10 00:17:08;;;;;;;9.23;4.77;;;;;;;-1.03;100.00;103380.44;2076927;28;20207;-69
2024/01/10 00:18:09;;;;;;;6.90;4.17;;;;;;;-1.08;100.00;103384.00;2076757;28;20551;-69
2024/01/10 00:19:09;;;;;;;7.50;4.57;;;;;;;-1.07;100.00;103389.19;2078391;28;20197;-69
2024/01/10 00:20:10;;;;;;;9.33;4.53;;;;;;;-1.18;100.00;103375.16;2077153;28;20219;-69
2024/01/10 00:21:11;;;;;;;7.27;3.90;;;;;;;-2.39;100.00;103197.88;2076456;28;20617;-69
2024/01/10 00:22:11;;;;;;;7.45;4.05;;;;;;;-1.29;100.00;103382.59;2075419;28;20199;-69
2024/01/10 00:23:12;;;;;;;6.83;4.10;;;;;;;-1.33;100.00;103386.19;2075275;28;20219;-69
2024/01/10 00:24:12;;;;;;;6.63;3.97;;;;;;;-1.49;100.00;103369.16;2075363;28;20222;-69
2024/01/10 00:25:13;;;;;;;5.87;3.80;;;;;;;-1.40;100.00;103383.00;2078498;28;20191;-69
2024/01/10 00:26:13;;;;;;;7.63;4.27;;;;;;;-1.45;100.00;103391.19;2076993;28;20295;-69
2024/01/10 00:27:15;;;;;;;12.00;4.27;;;;;;;-1.51;100.00;103406.72;2075809;28;20297;-69
2024/01/10 00:28:18;;;;;;;7.50;4.18;;;;;;;-1.50;100.00;103378.44;2076491;28;20212;-69
2024/01/10 00:29:19;;;;;;;7.20;4.22;;;;;;;-1.52;100.00;103386.88;2076938;28;20215;-69
2024/01/10 00:30:19;;;;;;;8.37;3.93;;;;;;;-1.58;100.00;103384.50;2076590;28;20196;-69
2024/01/10 00:31:20;;;;;;;8.73;4.33;;;;;;;-1.59;100.00;103382.06;2079067;28;20188;-69
2024/01/10 00:32:20;;;;;;;7.33;4.13;;;;;;;-1.60;100.00;103386.66;2076225;28;20204;-69
2024/01/10 00:33:21;;;;;;;6.83;3.90;;;;;;;-2.18;100.00;103294.41;2075231;28;20203;-69
2024/01/10 00:34:21;;;;;;;8.47;4.53;;;;;;;-1.68;100.00;103373.69;2076014;28;20231;-69
2024/01/10 00:35:22;;;;;;;6.07;3.83;;;;;;;-2.17;100.00;103290.63;2075618;28;20829;-69
2024/01/10 00:36:22;;;;;;;7.03;4.17;;;;;;;-1.81;100.00;103349.84;2076261;28;20569;-69
2024/01/10 00:37:23;;;;;;;11.87;4.80;;;;;;;-1.66;100.00;103382.38;2077193;28;20199;-69
2024/01/10 00:38:23;;;;;;;9.13;5.20;;;;;;;-2.94;100.00;103180.06;2076122;28;20743;-69
2024/01/10 00:39:24;;;;;;;8.80;4.73;;;;;;;-2.38;100.00;103280.97;2075544;28;20206;-69
2024/01/10 00:40:24;;;;;;;8.13;5.20;;;;;;;-1.76;100.00;103387.88;2076885;28;20211;-69
2024/01/10 00:41:25;;;;;;;7.30;4.33;;;;;;;-2.04;100.00;103356.03;2076496;28;20271;-69
2024/01/10 00:42:25;;;;;;;5.63;3.97;;;;;;;-1.92;100.00;103375.50;2076215;28;20534;-69
2024/01/10 00:43:26;;;;;;;7.50;4.77;;;;;;;-1.98;100.00;103378.53;2076857;28;20203;-69
2024/01/10 00:44:27;;;;;;;9.50;5.03;;;;;;;-2.00;100.00;103378.00;2075540;28;20223;-69
2024/01/10 00:45:27;;;;;;;6.27;4.37;;;;;;;-2.76;100.00;103274.44;2075571;28;20429;-69
2024/01/10 00:46:28;;;;;;;12.53;4.20;;;;;;;-2.13;100.00;103377.50;2076447;28;20784;-69
2024/01/10 00:47:28;;;;;;;7.77;4.77;;;;;;;-2.21;100.00;103381.94;2075702;28;20227;-69
2024/01/10 00:48:29;;;;;;;7.97;4.40;;;;;;;-2.30;100.00;103379.00;2075843;28;20310;-69
2024/01/10 00:49:29;;;;;;;8.70;4.90;;;;;;;-2.52;100.00;103356.03;2078927;28;20285;-69
2024/01/10 00:50:30;;;;;;;9.70;5.37;;;;;;;-2.55;100.00;103351.13;2076873;28;20236;-69
2024/01/10 00:51:30;;;;;;;7.20;4.27;;;;;;;-2.48;100.00;103376.06;2077228;28;20539;-69
2024/01/10 00:52:31;;;;;;;9.23;5.70;;;;;;;-2.54;100.00;103374.47;2076891;28;20206;-69
2024/01/10 00:53:31;;;;;;;8.40;4.70;;;;;;;-2.52;100.00;103370.41;2073815;28;20970;-69
2024/01/10 00:54:32;;;;;;;9.13;4.87;;;;;;;-2.49;100.00;103372.56;2075414;28;20555;-69
2024/01/10 00:55:32;;;;;;;8.60;4.90;;;;;;;-2.52;100.00;103356.81;2078315;28;20201;-69
2024/01/10 00:56:33;;;;;;;7.20;4.57;;;;;;;-2.40;100.00;103372.78;2077125;28;20204;-69
2024/01/10 00:57:33;;;;;;;8.67;4.53;;;;;;;-2.59;100.00;103339.19;2075871;28;20206;-69
2024/01/10 00:58:35;;;;;;;7.70;4.50;;;;;;;-2.39;100.00;103353.50;2076385;28;20205;-69
2024/01/10 00:59:35;;;;;;;7.57;4.20;;;;;;;-2.45;100.00;103346.47;2076425;28;20661;-69
2024/01/10 01:00:36;;;;;;;7.00;4.43;;;;;;;-2.53;100.00;103317.19;2077058;28;20727;-69
2024/01/10 01:01:37;;;;;;;9.10;4.60;;;;;;;-2.11;100.00;103373.72;2078576;28;20191;-69
2024/01/10 01:02:39;;;;;;;8.47;4.50;;;;;;;-2.08;100.00;103373.97;2075851;28;20316;-69
2024/01/10 01:03:39;;;;;;;7.78;4.65;;;;;;;-2.29;100.00;103341.75;2073458;28;20202;-69
2024/01/10 01:04:40;;;;;;;6.23;4.13;;;;;;;-2.08;100.00;103368.53;2075679;28;20224;-69
2024/01/10 01:05:41;;;;;;;9.00;4.97;;;;;;;-2.08;100.00;103370.44;2076488;28;20196;-69
2024/01/10 01:06:41;;;;;;;9.07;4.47;;;;;;;-2.13;100.00;103372.06;2076942;28;20203;-69
2024/01/10 01:07:42;;;;;;;7.47;4.53;;;;;;;-2.14;100.00;103366.13;2078242;28;20241;-69
2024/01/10 01:08:42;;;;;;;7.00;4.40;;;;;;;-2.13;100.00;103370.47;2076139;28;20199;-69
2024/01/10 01:09:43;;;;;;;9.13;4.50;;;;;;;-2.31;100.00;103358.34;2076816;28;20231;-69
2024/01/10 01:10:43;;;;;;;6.03;4.53;;;;;;;-2.23;100.00;103370.53;2076992;28;20191;-69
2024/01/10 01:11:44;;;;;;;11.50;4.43;;;;;;;-2.25;100.00;103370.81;2076742;28;20191;-69
2024/01/10 01:12:44;;;;;;;6.83;4.47;;;;;;;-2.76;100.00;103289.88;2076875;28;20202;-69
2024/01/10 01:13:45;;;;;;;8.97;4.80;;;;;;;-2.65;100.00;103337.59;2075927;28;20226;-69
2024/01/10 01:14:45;;;;;;;7.13;4.60;;;;;;;-2.31;100.00;103363.78;2074717;28;20195;-69
2024/01/10 01:15:46;;;;;;;7.77;4.43;;;;;;;-2.34;100.00;103363.53;2076972;28;20229;-69
2024/01/10 01:16:46;;;;;;;7.40;4.13;;;;;;;-2.33;100.00;103365.97;2075977;28;20658;-69
2024/01/10 01:17:47;;;;;;;9.40;4.93;;;;;;;-2.32;100.00;103367.59;2075746;28;20227;-69
2024/01/10 01:18:47;;;;;;;6.60;4.47;;;;;;;-2.33;100.00;103365.97;2076736;28;20583;-69
2024/01/10 01:19:48;;;;;;;7.93;4.40;;;;;;;-2.51;100.00;103327.78;2077480;28;20771;-69
2024/01/10 01:20:50;;;;;;;7.00;4.23;;;;;;;-2.32;100.00;103356.72;2076680;28;20709;-69
2024/01/10 01:21:50;;;;;;;6.82;4.22;;;;;;;-2.33;100.00;103355.09;2076544;28;20196;-69
2024/01/10 01:22:51;;;;;;;5.80;3.83;;;;;;;-2.31;100.00;103360.25;2075843;28;20223;-69
2024/01/10 01:23:51;;;;;;;6.37;3.83;;;;;;;-2.40;100.00;103351.06;2073745;28;20255;-69
2024/01/10 01:24:52;;;;;;;8.93;4.70;;;;;;;-2.38;100.00;103355.13;2077073;28;20265;-69
2024/01/10 01:25:52;;;;;;;7.13;4.50;;;;;;;-2.38;100.00;103362.44;2078082;28;20233;-69
2024/01/10 01:26:53;;;;;;;7.90;4.93;;;;;;;-2.42;100.00;103359.47;2076694;28;20722;-69
2024/01/10 01:27:53;;;;;;;7.47;4.10;;;;;;;-2.52;100.00;103356.81;2076218;28;20207;-69
2024/01/10 01:28:54;;;;;;;5.60;4.13;;;;;;;-2.53;100.00;103351.66;2076480;28;20340;-69
2024/01/10 01:29:55;;;;;;;7.30;4.47;;;;;;;-2.56;100.00;103354.94;2075604;28;20186;-69
2024/01/10 01:30:55;;;;;;;8.50;5.20;;;;;;;-3.17;100.00;103277.56;2078057;28;20242;-69
2024/01/10 01:31:56;;;;;;;8.23;4.73;;;;;;;-2.58;100.00;103347.06;2077534;28;20452;-69
2024/01/10 01:32:56;;;;;;;12.57;5.30;;;;;;;-2.68;100.00;103332.75;2076688;28;20201;-69
2024/01/10 01:33:57;;;;;;;7.47;4.73;;;;;;;-2.57;100.00;103362.28;2074303;28;20201;-69
2024/01/10 01:34:58;;;;;;;8.63;4.73;;;;;;;-2.72;100.00;103345.25;2075619;28;20677;-69
2024/01/10 01:35:58;;;;;;;10.57;4.70;;;;;;;-2.72;100.00;103362.31;2076022;28;20538;-69
2024/01/10 01:37:00;;;;;;;8.27;4.70;;;;;;;-2.81;100.00;103361.28;2077450;28;20252;-69
2024/01/10 01:38:01;;;;;;;9.23;5.35;;;;;;;-2.84;100.00;103363.72;2077743;28;20186;-69
2024/01/10 01:39:02;;;;;;;7.93;4.43;;;;;;;-2.83;100.00;103362.66;2076106;28;20195;-69
2024/01/10 01:40:02;;;;;;;7.60;4.60;;;;;;;-2.87;100.00;103365.09;2076793;28;20190;-69
2024/01/10 01:41:03;;;;;;;8.57;4.33;;;;;;;-2.84;100.00;103361.00;2076325;28;20191;-69
2024/01/10 01:42:04;;;;;;;5.97;3.93;;;;;;;-2.90;100.00;103353.97;2076027;28;20182;-69
2024/01/10 01:43:23;;;;;;;8.95;4.35;;;;;;;-2.86;100.00;103358.59;2076787;28;20193;-69
2024/01/10 01:44:24;;;;;;;7.53;4.63;;;;;;;-2.83;100.00;103357.25;2074493;28;20643;-69
2024/01/10 01:45:24;;;;;;;7.50;3.83;;;;;;;-3.27;100.00;103297.41;2078005;28;20177;-69
2024/01/10 01:46:25;;;;;;;8.53;3.93;;;;;;;-3.27;100.00;103283.03;2076223;28;20590;-69
2024/01/10 01:47:27;;;;;;;8.67;4.50;;;;;;;-2.81;100.00;103358.59;2076165;28;20775;-69
2024/01/10 01:48:27;;;;;;;6.70;4.47;;;;;;;-2.84;100.00;103353.69;2075968;28;20798;-69
2024/01/10 01:49:28;;;;;;;7.40;4.33;;;;;;;-2.85;100.00;103354.78;2076504;28;20682;-69
2024/01/10 01:50:29;;;;;;;6.88;4.25;;;;;;;-2.88;100.00;103354.53;2076013;28;20193;-69
2024/01/10 01:51:31;;;;;;;9.07;5.00;;;;;;;-2.95;100.00;103348.56;2078507;28;20194;-69
2024/01/10 01:52:34;;;;;;;5.57;3.97;;;;;;;-2.86;100.00;103350.47;2075961;28;20289;-69
2024/01/10 01:53:36;;;;;;;5.88;3.95;;;;;;;-2.89;100.00;103350.19;2066352;28;20230;-69
2024/01/10 01:54:36;;;;;;;6.97;4.28;;;;;;;-3.53;100.00;103262.47;2075460;28;20187;-69
2024/01/10 01:55:37;;;;;;;8.40;4.60;;;;;;;-2.91;100.00;103357.78;2076518;28;20203;-69
2024/01/10 01:56:38;;;;;;;8.20;4.80;;;;;;;-3.40;100.00;103273.56;2076184;28;20562;-69
2024/01/10 01:57:39;;;;;;;9.23;5.30;;;;;;;-3.93;100.00;103182.09;2077322;28;20243;-69
2024/01/10 01:58:40;;;;;;;6.70;4.40;;;;;;;-3.01;100.00;103331.50;2077341;28;20239;-69
2024/01/10 01:59:40;;;;;;;7.43;4.63;;;;;;;-2.97;100.00;103340.69;2076781;28;20618;-69
2024/01/10 02:00:43;;;;;;;6.97;4.40;;;;;;;-2.97;100.00;103343.41;2077459;28;20200;-69
2024/01/10 02:01:44;;;;;;;6.85;4.10;;;;;;;-2.99;100.00;103348.31;2078494;28;20873;-69
2024/01/10 02:02:44;;;;;;;7.40;4.30;;;;;;;-2.99;100.00;103348.31;2076729;28;20189;-69
2024/01/10 02:03:45;;;;;;;8.37;4.60;;;;;;;-3.05;100.00;103324.19;2076911;28;20206;-69
2024/01/10 02:04:46;;;;;;;9.10;4.60;;;;;;;-2.94;100.00;103333.91;2079023;28;20309;-69
2024/01/10 02:05:47;;;;;;;7.32;4.43;;;;;;;-3.14;100.00;103315.81;2078094;28;20664;-69
2024/01/10 02:06:48;;;;;;;8.07;5.18;;;;;;;-2.96;100.00;103317.94;2076761;28;20704;-69
2024/01/10 02:07:48;;;;;;;7.30;4.83;;;;;;;-3.26;100.00;103271.09;2077717;28;20708;-69
2024/01/10 02:08:49;;;;;;;10.43;4.60;;;;;;;-4.43;100.00;103071.16;2077931;28;20320;-69
2024/01/10 02:09:50;;;;;;;8.13;4.47;;;;;;;-2.85;100.00;103335.78;2078821;28;20192;-69
2024/01/10 02:10:50;;;;;;;8.50;4.77;;;;;;;-2.80;100.00;103327.63;2080179;28;20198;-69
2024/01/10 02:11:52;;;;;;;9.40;4.80;;;;;;;-3.13;100.00;103270.50;2078082;28;20281;-69
2024/01/10 02:12:52;;;;;;;7.32;4.53;;;;;;;-3.29;100.00;103247.25;2077228;28;20200;-69
2024/01/10 02:13:56;;;;;;;8.80;4.33;;;;;;;-2.79;100.00;103329.25;2075972;28;20204;-69
2024/01/10 02:14:57;;;;;;;7.03;4.55;;;;;;;-3.92;100.00;103142.25;2076942;28;20426;-69
2024/01/10 02:15:58;;;;;;;8.67;4.60;;;;;;;-3.46;100.00;103236.72;2078006;28;20189;-69
2024/01/10 02:16:59;;;;;;;7.40;4.57;;;;;;;-3.75;100.00;103162.53;2079324;28;20896;-69
2024/01/10 02:17:59;;;;;;;10.23;4.73;;;;;;;-2.76;100.00;103322.47;2077295;28;20263;-69
2024/01/10 02:19:01;;;;;;;6.90;4.40;;;;;;;-2.95;100.00;103291.59;2078106;28;20690;-69
2024/01/10 02:20:08;;;;;;;7.45;4.50;;;;;;;-2.74;100.00;103322.97;2078139;28;20188;-69
2024/01/10 02:21:09;;;;;;;9.57;4.15;;;;;;;-2.80;100.00;103319.50;2078322;28;20194;-69
2024/01/10 02:22:10;;;;;;;8.73;4.87;;;;;;;-3.31;100.00;103238.56;2077704;28;20217;-69
2024/01/10 02:23:11;;;;;;;7.93;4.28;;;;;;;-2.76;100.00;103319.75;2077412;28;20253;-69
2024/01/10 02:24:12;;;;;;;8.73;4.97;;;;;;;-2.81;100.00;103319.75;2078666;28;20218;-69
2024/01/10 02:25:13;;;;;;;9.57;5.17;;;;;;;-2.81;100.00;103314.34;2077725;28;20194;-69
2024/01/10 02:26:15;;;;;;;6.53;4.03;;;;;;;-2.79;100.00;103320.28;2077508;28;20225;-69
2024/01/10 02:27:15;;;;;;;7.88;4.68;;;;;;;-2.78;100.00;103320.00;2077629;28;20250;-69
2024/01/10 02:28:16;;;;;;;8.93;4.50;;;;;;;-2.92;100.00;103296.47;2076498;28;20179;-69
2024/01/10 02:29:16;;;;;;;7.73;4.43;;;;;;;-2.79;100.00;103317.56;2077834;28;20177;-69
2024/01/10 02:30:17;;;;;;;6.77;3.90;;;;;;;-3.05;100.00;103270.75;2078857;28;20190;-69
2024/01/10 02:31:17;;;;;;;7.40;3.70;;;;;;;-2.76;100.00;103319.75;2077071;28;20195;-69
2024/01/10 02:32:18;;;;;;;7.33;4.90;;;;;;;-2.82;100.00;103316.22;2078285;28;20186;-69
2024/01/10 02:33:19;;;;;;;7.67;4.47;;;;;;;-3.49;100.00;103223.69;2076612;28;20198;-69
2024/01/10 02:34:19;;;;;;;8.67;4.80;;;;;;;-2.87;100.00;103320.88;2076710;28;20179;-69
2024/01/10 02:35:20;;;;;;;6.97;4.00;;;;;;;-2.89;100.00;103312.19;2078030;28;20186;-69
2024/01/10 02:36:20;;;;;;;7.97;4.63;;;;;;;-3.49;100.00;103263.56;2078214;28;20196;-69
2024/01/10 02:37:21;;;;;;;7.33;4.77;;;;;;;-2.84;100.00;103320.31;2076981;28;20348;-69
2024/01/10 02:38:23;;;;;;;5.47;3.63;;;;;;;-2.89;100.00;103304.88;2077692;28;20224;-69
2024/01/10 02:39:23;;;;;;;6.07;3.70;;;;;;;-2.83;100.00;103316.53;2077847;28;20641;-69
2024/01/10 02:40:24;;;;;;;6.37;3.97;;;;;;;-2.86;100.00;103314.34;2077140;28;20233;-69
2024/01/10 02:41:25;;;;;;;5.60;3.53;;;;;;;-2.88;100.00;103320.06;2078688;28;20204;-69
2024/01/10 02:42:27;;;;;;;5.33;3.30;;;;;;;-2.93;100.00;103309.22;2079519;28;20617;-69
2024/01/10 02:43:28;;;;;;;5.55;3.53;;;;;;;-3.00;100.00;103314.13;2076483;28;20222;-69
2024/01/10 02:44:28;;;;;;;6.77;4.63;;;;;;;-3.19;100.00;103285.19;2076132;28;20279;-69
2024/01/10 02:45:29;;;;;;;8.07;4.83;;;;;;;-3.11;100.00;103307.13;2077916;28;20203;-69
2024/01/10 02:46:29;;;;;;;7.03;4.23;;;;;;;-3.11;100.00;103309.00;2077558;28;20195;-69
2024/01/10 02:47:30;;;;;;;7.70;4.13;;;;;;;-3.15;100.00;103311.47;2077844;28;20244;-69
2024/01/10 02:48:30;;;;;;;7.97;4.40;;;;;;;-3.16;100.00;103306.31;2079033;28;20241;-69
2024/01/10 02:49:31;;;;;;;7.93;4.77;;;;;;;-3.22;100.00;103313.66;2077690;28;20513;-69
2024/01/10 02:50:31;;;;;;;7.17;3.80;;;;;;;-3.24;100.00;103309.59;2077302;28;20197;-70
2024/01/10 02:51:32;;;;;;;8.43;4.13;;;;;;;-3.24;100.00;103312.31;2077395;28;20250;-70
2024/01/10 02:52:32;;;;;;;6.63;4.00;;;;;;;-3.30;100.00;103308.78;2076533;28;20887;-69
2024/01/10 02:53:33;;;;;;;7.40;4.70;;;;;;;-3.39;100.00;103331.34;2076961;28;20191;-69
2024/01/10 02:54:33;;;;;;;6.23;4.50;;;;;;;-3.58;100.00;103290.44;2077592;28;20903;-69
2024/01/10 02:55:34;;;;;;;6.17;4.20;;;;;;;-3.72;100.00;103285.81;2077490;28;20850;-69
2024/01/10 02:56:34;;;;;;;7.50;4.73;;;;;;;-3.59;100.00;103302.31;2077280;28;20193;-69
2024/01/10 02:57:35;;;;;;;7.10;3.73;;;;;;;-4.61;100.00;103139.34;2077209;28;20197;-69
2024/01/10 02:58:35;;;;;;;6.07;3.73;;;;;;;-3.64;100.00;103299.63;2078136;28;20308;-69
2024/01/10 02:59:36;;;;;;;5.90;3.90;;;;;;;-3.68;100.00;103293.16;2078424;28;20206;-69
2024/01/10 03:00:37;;;;;;;6.83;4.33;;;;;;;-3.62;100.00;103302.88;2078944;28;20244;-69
2024/01/10 03:01:38;;;;;;;7.15;3.78;;;;;;;-3.60;100.00;103299.91;2077904;28;20200;-69
2024/01/10 03:02:38;;;;;;;6.40;4.03;;;;;;;-3.62;100.00;103292.06;2076619;28;20201;-69
2024/01/10 03:03:39;;;;;;;6.73;4.27;;;;;;;-3.95;100.00;103241.13;2076363;28;20198;-69
2024/01/10 03:04:39;;;;;;;9.47;4.40;;;;;;;-3.79;100.00;103261.69;2077416;28;20241;-69
2024/01/10 03:05:40;;;;;;;6.83;4.43;;;;;;;-3.62;100.00;103291.22;2079267;28;20187;-69
2024/01/10 03:06:40;;;;;;;10.03;5.53;;;;;;;-3.68;100.00;103282.31;2077712;28;20221;-69
2024/01/10 03:07:41;;;;;;;10.03;5.00;;;;;;;-3.57;100.00;103291.22;2076759;28;20263;-69
2024/01/10 03:08:41;;;;;;;8.33;5.20;;;;;;;-3.55;100.00;103299.91;2077331;28;20193;-69
2024/01/10 03:09:43;;;;;;;8.30;4.93;;;;;;;-3.50;100.00;103297.19;2077594;28;20193;-69
2024/01/10 03:10:43;;;;;;;9.43;5.07;;;;;;;-3.50;100.00;103289.06;2078024;28;20660;-69
2024/01/10 03:11:44;;;;;;;7.33;5.00;;;;;;;-4.14;100.00;103190.50;2078971;28;20621;-69
2024/01/10 03:12:44;;;;;;;9.50;4.33;;;;;;;-3.64;100.00;103286.06;2077127;28;20189;-69
2024/01/10 03:13:46;;;;;;;6.30;4.13;;;;;;;-4.55;100.00;103180.75;2075800;28;20185;-70
2024/01/10 03:14:46;;;;;;;7.85;4.45;;;;;;;-3.96;100.00;103258.47;2077180;28;20678;-69
2024/01/10 03:15:47;;;;;;;6.67;4.47;;;;;;;-3.81;100.00;103287.44;2077390;28;20695;-69
2024/01/10 03:16:48;;;;;;;7.93;4.73;;;;;;;-3.80;100.00;103294.50;2077912;28;20578;-69
2024/01/10 03:17:48;;;;;;;7.87;4.63;;;;;;;-3.73;100.00;103295.03;2079176;28;20181;-69
2024/01/10 03:18:49;;;;;;;7.87;4.70;;;;;;;-3.82;100.00;103293.94;2077647;28;20185;-69
2024/01/10 03:19:49;;;;;;;7.63;4.37;;;;;;;-3.76;100.00;103288.25;2077216;28;20189;-69
2024/01/10 03:20:50;;;;;;;5.47;3.57;;;;;;;-3.72;100.00;103285.81;2077385;28;20202;-69
2024/01/10 03:21:50;;;;;;;7.00;4.83;;;;;;;-3.82;100.00;103291.25;2076379;28;20191;-69
2024/01/10 03:22:51;;;;;;;7.70;4.10;;;;;;;-4.20;100.00;103246.53;2078833;28;20185;-69
2024/01/10 03:24:01;;;;;;;6.53;4.30;;;;;;;-3.95;100.00;103294.50;2076051;28;20347;-69
2024/01/10 03:25:02;;;;;;;7.97;4.50;;;;;;;-4.03;100.00;103295.88;2077607;28;20197;-69
2024/01/10 03:26:03;;;;;;;8.77;4.17;;;;;;;-4.32;100.00;103250.63;2077671;28;20198;-69
2024/01/10 03:27:04;;;;;;;6.07;4.40;;;;;;;-4.18;100.00;103271.47;2075991;28;20497;-70
2024/01/10 03:28:05;;;;;;;7.82;4.70;;;;;;;-4.11;100.00;103284.75;2076285;28;20193;-69
2024/01/10 03:29:05;;;;;;;8.47;4.60;;;;;;;-4.13;100.00;103285.03;2079430;28;20281;-69
2024/01/10 03:30:06;;;;;;;7.37;4.97;;;;;;;-4.13;100.00;103316.69;2077786;28;20254;-69
2024/01/10 03:31:07;;;;;;;8.10;4.13;;;;;;;-4.11;100.00;103282.06;2076502;28;20196;-69
2024/01/10 03:32:07;;;;;;;8.50;4.60;;;;;;;-4.07;100.00;103286.63;2076597;28;20207;-69
2024/01/10 03:33:08;;;;;;;9.90;4.20;;;;;;;-5.01;100.00;103119.56;2076602;28;20213;-69
2024/01/10 03:34:08;;;;;;;7.67;4.77;;;;;;;-3.98;100.00;103292.34;2076608;28;20194;-69
2024/01/10 03:35:09;;;;;;;7.50;4.20;;;;;;;-3.97;100.00;103283.13;2078974;28;20969;-69
2024/01/10 03:36:13;;;;;;;7.43;3.63;;;;;;;-3.93;100.00;103284.19;2076327;28;20198;-69
2024/01/10 03:37:14;;;;;;;7.93;4.13;;;;;;;-4.17;100.00;103243.31;2076692;28;20576;-69
2024/01/10 03:38:16;;;;;;;7.03;4.47;;;;;;;-4.55;100.00;103189.69;2077225;28;20219;-69
2024/01/10 03:39:16;;;;;;;7.80;4.50;;;;;;;-3.92;100.00;103283.13;2076937;28;20224;-69
2024/01/10 03:40:17;;;;;;;9.57;4.63;;;;;;;-4.54;100.00;103198.63;2077748;28;20246;-69
2024/01/10 03:41:18;;;;;;;8.90;3.90;;;;;;;-3.99;100.00;103282.59;2078728;28;20220;-69
2024/01/10 03:42:19;;;;;;;7.18;4.03;;;;;;;-4.11;100.00;103276.63;2076891;28;20792;-69
2024/01/10 03:43:19;;;;;;;8.23;4.93;;;;;;;-4.05;100.00;103278.25;2075570;28;20243;-69
2024/01/10 03:44:20;;;;;;;8.27;4.40;;;;;;;-3.97;100.00;103278.53;2076832;28;20725;-69
2024/01/10 03:45:22;;;;;;;8.60;4.70;;;;;;;-3.94;100.00;103280.69;2077432;28;20199;-69
2024/01/10 03:46:23;;;;;;;7.45;4.47;;;;;;;-3.93;100.00;103279.59;2077375;28;20272;-69
2024/01/10 03:47:23;;;;;;;7.53;4.23;;;;;;;-3.87;100.00;103283.13;2078900;28;20173;-69
2024/01/10 03:48:24;;;;;;;7.63;4.33;;;;;;;-4.48;100.00;103189.41;2077234;28;20495;-69
2024/01/10 03:49:25;;;;;;;7.70;4.13;;;;;;;-3.81;100.00;103272.00;2077009;28;20420;-70
2024/01/10 03:50:25;;;;;;;8.20;4.50;;;;;;;-3.81;100.00;103277.44;2077349;28;20687;-70
2024/01/10 03:51:26;;;;;;;6.77;3.90;;;;;;;-3.82;100.00;103272.28;2077436;28;20215;-69
2024/01/10 03:52:26;;;;;;;6.67;4.23;;;;;;;-4.63;100.00;103146.94;2077407;28;20205;-69
2024/01/10 03:53:27;;;;;;;6.07;3.93;;;;;;;-4.85;100.00;103105.81;2077834;28;20916;-69
2024/01/10 03:54:27;;;;;;;7.83;4.07;;;;;;;-3.76;100.00;103268.47;2076611;28;20193;-69
2024/01/10 03:55:28;;;;;;;7.40;4.00;;;;;;;-3.80;100.00;103270.91;2076870;28;20200;-69
2024/01/10 03:56:28;;;;;;;7.90;4.23;;;;;;;-3.81;100.00;103265.75;2077234;28;20634;-69
2024/01/10 03:57:29;;;;;;;6.43;3.90;;;;;;;-3.77;100.00;103270.38;2076918;28;20204;-69
2024/01/10 03:58:29;;;;;;;7.60;4.27;;;;;;;-3.75;100.00;103267.41;2076952;28;20638;-69
2024/01/10 03:59:30;;;;;;;5.87;3.80;;;;;;;-3.75;100.00;103273.63;2078699;28;20689;-69
2024/01/10 04:00:30;;;;;;;5.73;3.77;;;;;;;-3.77;100.00;103277.69;2077290;28;20186;-69
2024/01/10 04:01:31;;;;;;;5.50;3.53;;;;;;;-3.75;100.00;103270.13;2077421;28;20193;-69
2024/01/10 04:02:32;;;;;;;7.47;4.27;;;;;;;-3.75;100.00;103270.13;2076359;28;20242;-69
2024/01/10 04:03:33;;;;;;;6.80;3.80;;;;;;;-3.75;100.00;103275.53;2074917;28;20302;-69
2024/01/10 04:04:37;;;;;;;7.70;3.97;;;;;;;-4.82;100.00;103117.97;2075627;28;20764;-69
2024/01/10 04:05:38;;;;;;;6.80;4.13;;;;;;;-4.35;100.00;103178.88;2079035;28;20196;-69
2024/01/10 04:06:38;;;;;;;6.30;4.13;;;;;;;-3.79;100.00;103269.81;2077347;28;20221;-69
2024/01/10 04:07:43;;;;;;;6.47;3.50;;;;;;;-3.80;100.00;103268.22;2076638;28;20200;-69
2024/01/10 04:08:43;;;;;;;6.05;3.85;;;;;;;-3.81;100.00;103293.69;2076661;28;20193;-69
2024/01/10 04:09:44;;;;;;;7.40;3.90;;;;;;;-4.19;100.00;103204.03;2077148;28;20276;-69
2024/01/10 04:10:45;;;;;;;8.67;5.13;;;;;;;-3.82;100.00;103266.84;2077163;28;20670;-69
2024/01/10 04:11:45;;;;;;;7.23;4.67;;;;;;;-3.90;100.00;103265.50;2077869;28;20539;-69
2024/01/10 04:12:46;;;;;;;7.70;4.27;;;;;;;-3.91;100.00;103276.63;2077357;28;20258;-69
2024/01/10 04:13:46;;;;;;;6.60;3.97;;;;;;;-5.11;100.00;103076.28;2075700;28;20684;-69
2024/01/10 04:14:47;;;;;;;7.80;4.27;;;;;;;-3.94;100.00;103260.91;2075804;28;20252;-69
2024/01/10 04:15:47;;;;;;;4.90;3.83;;;;;;;-4.04;100.00;103259.03;2076713;28;20277;-69
2024/01/10 04:16:48;;;;;;;8.47;4.60;;;;;;;-3.92;100.00;103264.16;2076734;28;20185;-69
2024/01/10 04:17:48;;;;;;;6.43;3.77;;;;;;;-3.86;100.00;103263.09;2077568;28;20214;-69
2024/01/10 04:18:49;;;;;;;6.47;4.10;;;;;;;-3.85;100.00;103273.63;2077717;28;20185;-69
2024/01/10 04:19:49;;;;;;;5.67;3.57;;;;;;;-3.83;100.00;103270.66;2077835;28;20188;-69
2024/01/10 04:20:50;;;;;;;7.03;4.00;;;;;;;-3.84;100.00;103272.56;2078001;28;20185;-69
2024/01/10 04:21:51;;;;;;;7.97;3.97;;;;;;;-3.87;100.00;103275.00;2077661;28;20220;-69
2024/01/10 04:22:51;;;;;;;7.27;3.90;;;;;;;-3.93;100.00;103268.78;2068026;28;20628;-69
2024/01/10 04:23:52;;;;;;;7.23;4.10;;;;;;;-3.90;100.00;103273.63;2076046;28;20646;-69
2024/01/10 04:24:52;;;;;;;6.10;4.20;;;;;;;-3.93;100.00;103278.78;2076221;28;20205;-69
2024/01/10 04:25:53;;;;;;;8.50;4.83;;;;;;;-3.94;100.00;103274.47;2076551;28;20826;-69
2024/01/10 04:26:54;;;;;;;7.18;4.45;;;;;;;-3.97;100.00;103275.00;2075982;28;20732;-69
2024/01/10 04:27:55;;;;;;;6.70;3.73;;;;;;;-4.17;100.00;103245.19;2076505;28;20692;-69
2024/01/10 04:28:56;;;;;;;7.15;4.60;;;;;;;-4.02;100.00;103280.41;2076580;28;20679;-69
2024/01/10 04:29:56;;;;;;;8.90;5.30;;;;;;;-4.18;100.00;103259.81;2078959;28;20603;-69
2024/01/10 04:30:57;;;;;;;9.00;4.80;;;;;;;-4.11;100.00;103282.84;2077587;28;20608;-69
2024/01/10 04:31:57;;;;;;;5.13;3.83;;;;;;;-4.09;100.00;103275.28;2075911;28;20185;-69
2024/01/10 04:32:58;;;;;;;7.30;4.00;;;;;;;-4.77;100.00;103182.91;2075728;28;20550;-69
2024/01/10 04:33:58;;;;;;;8.23;5.03;;;;;;;-4.15;100.00;103279.03;2075085;28;20205;-69
2024/01/10 04:34:59;;;;;;;9.27;4.93;;;;;;;-4.13;100.00;103284.19;2076633;28;20178;-69
2024/01/10 04:35:59;;;;;;;7.13;4.27;;;;;;;-4.76;100.00;103185.34;2078944;28;20183;-69
2024/01/10 04:37:00;;;;;;;8.80;5.07;;;;;;;-4.10;100.00;103281.75;2076406;28;20187;-69
2024/01/10 04:38:01;;;;;;;8.87;5.13;;;;;;;-5.10;100.00;103115.75;2077204;28;20190;-69
2024/01/10 04:39:01;;;;;;;8.60;5.13;;;;;;;-4.05;100.00;103289.09;2076626;28;20191;-69
2024/01/10 04:40:02;;;;;;;11.30;5.40;;;;;;;-4.04;100.00;103288.00;2077124;28;20195;-69